sensor_id;sensor_type;location;lat;lon;timestamp;P1;durP1;ratioP1;P2;durP2;ratioP2
22754;SDS011;11544;42.020;23.094;2022-08-19T00:01:51;5.50;;;4.90;;
22754;SDS011;11544;42.020;23.094;2022-08-19T00:04:18;6.32;;;5.30;;
22754;SDS011;11544;42.020;23.094;2022-08-19T00:06:49;6.68;;;5.28;;
22754;SDS011;11544;42.020;23.094;2022-08-19T00:09:17;6.70;;;5.25;;
22754;SDS011;11544;42.020;23.094;2022-08-19T00:11:45;6.70;;;5.30;;
22754;SDS011;11544;42.020;23.094;2022-08-19T00:14:12;6.82;;;5.28;;
22754;SDS011;11544;42.020;23.094;2022-08-19T00:16:41;6.00;;;5.40;;
22754;SDS011;11544;42.020;23.094;2022-08-19T00:19:08;6.10;;;5.50;;
22754;SDS011;11544;42.020;23.094;2022-08-19T00:21:34;6.72;;;5.72;;
22754;SDS011;11544;42.020;23.094;2022-08-19T00:24:04;7.97;;;5.13;;
22754;SDS011;11544;42.020;23.094;2022-08-19T00:26:32;6.05;;;5.35;;
22754;SDS011;11544;42.020;23.094;2022-08-19T00:28:58;6.97;;;5.20;;
22754;SDS011;11544;42.020;23.094;2022-08-19T00:31:25;7.82;;;5.95;;
22754;SDS011;11544;42.020;23.094;2022-08-19T00:33:53;11.90;;;5.70;;
22754;SDS011;11544;42.020;23.094;2022-08-19T00:36:19;10.48;;;5.38;;
22754;SDS011;11544;42.020;23.094;2022-08-19T00:38:46;8.43;;;5.28;;
22754;SDS011;11544;42.020;23.094;2022-08-19T00:41:13;8.57;;;5.45;;
22754;SDS011;11544;42.020;23.094;2022-08-19T00:43:41;9.27;;;5.13;;
22754;SDS011;11544;42.020;23.094;2022-08-19T00:46:07;7.00;;;5.47;;
22754;SDS011;11544;42.020;23.094;2022-08-19T00:48:33;6.57;;;4.93;;
22754;SDS011;11544;42.020;23.094;2022-08-19T00:50:59;5.15;;;4.75;;
22754;SDS011;11544;42.020;23.094;2022-08-19T00:53:27;5.90;;;4.97;;
22754;SDS011;11544;42.020;23.094;2022-08-19T00:55:58;5.95;;;5.30;;
22754;SDS011;11544;42.020;23.094;2022-08-19T00:58:27;6.35;;;5.53;;
22754;SDS011;11544;42.020;23.094;2022-08-19T01:00:55;6.03;;;4.85;;
22754;SDS011;11544;42.020;23.094;2022-08-19T01:03:21;5.53;;;5.03;;
22754;SDS011;11544;42.020;23.094;2022-08-19T01:05:48;6.55;;;5.30;;
22754;SDS011;11544;42.020;23.094;2022-08-19T01:08:16;6.15;;;5.15;;
22754;SDS011;11544;42.020;23.094;2022-08-19T01:10:47;6.55;;;5.20;;
22754;SDS011;11544;42.020;23.094;2022-08-19T01:13:16;6.82;;;4.97;;
22754;SDS011;11544;42.020;23.094;2022-08-19T01:15:50;5.03;;;4.57;;
22754;SDS011;11544;42.020;23.094;2022-08-19T01:18:20;5.82;;;5.20;;
22754;SDS011;11544;42.020;23.094;2022-08-19T01:20:46;6.55;;;4.95;;
22754;SDS011;11544;42.020;23.094;2022-08-19T01:23:13;7.68;;;5.00;;
22754;SDS011;11544;42.020;23.094;2022-08-19T01:28:16;6.10;;;5.43;;
22754;SDS011;11544;42.020;23.094;2022-08-19T01:30:46;8.75;;;6.53;;
22754;SDS011;11544;42.020;23.094;2022-08-19T01:33:13;5.80;;;5.20;;
22754;SDS011;11544;42.020;23.094;2022-08-19T01:35:40;7.13;;;5.15;;
22754;SDS011;11544;42.020;23.094;2022-08-19T01:38:08;7.13;;;4.85;;
22754;SDS011;11544;42.020;23.094;2022-08-19T01:40:36;7.28;;;5.43;;
22754;SDS011;11544;42.020;23.094;2022-08-19T01:43:04;8.75;;;5.55;;
22754;SDS011;11544;42.020;23.094;2022-08-19T01:45:32;8.57;;;5.55;;
22754;SDS011;11544;42.020;23.094;2022-08-19T01:47:59;9.30;;;5.68;;
22754;SDS011;11544;42.020;23.094;2022-08-19T01:50:25;5.75;;;5.25;;
22754;SDS011;11544;42.020;23.094;2022-08-19T01:52:52;7.97;;;5.97;;
22754;SDS011;11544;42.020;23.094;2022-08-19T01:55:19;6.95;;;5.40;;
22754;SDS011;11544;42.020;23.094;2022-08-19T01:57:50;5.78;;;5.18;;
22754;SDS011;11544;42.020;23.094;2022-08-19T02:00:21;11.43;;;6.25;;
22754;SDS011;11544;42.020;23.094;2022-08-19T02:02:48;6.20;;;5.57;;
22754;SDS011;11544;42.020;23.094;2022-08-19T02:05:14;8.13;;;5.88;;
22754;SDS011;11544;42.020;23.094;2022-08-19T02:07:41;8.50;;;5.97;;
22754;SDS011;11544;42.020;23.094;2022-08-19T02:10:09;6.25;;;5.65;;
22754;SDS011;11544;42.020;23.094;2022-08-19T02:12:39;7.07;;;5.85;;
22754;SDS011;11544;42.020;23.094;2022-08-19T02:15:05;9.13;;;6.22;;
22754;SDS011;11544;42.020;23.094;2022-08-19T02:17:32;5.97;;;5.47;;
22754;SDS011;11544;42.020;23.094;2022-08-19T02:19:59;7.68;;;5.95;;
22754;SDS011;11544;42.020;23.094;2022-08-19T02:22:25;6.70;;;5.75;;
22754;SDS011;11544;42.020;23.094;2022-08-19T02:24:51;8.10;;;5.45;;
22754;SDS011;11544;42.020;23.094;2022-08-19T02:27:18;8.93;;;6.07;;
22754;SDS011;11544;42.020;23.094;2022-08-19T02:29:45;6.47;;;5.88;;
22754;SDS011;11544;42.020;23.094;2022-08-19T02:32:11;6.72;;;5.57;;
22754;SDS011;11544;42.020;23.094;2022-08-19T02:34:37;6.53;;;5.57;;
22754;SDS011;11544;42.020;23.094;2022-08-19T02:37:02;8.90;;;5.60;;
22754;SDS011;11544;42.020;23.094;2022-08-19T02:39:28;8.23;;;5.55;;
22754;SDS011;11544;42.020;23.094;2022-08-19T02:41:54;8.48;;;5.03;;
22754;SDS011;11544;42.020;23.094;2022-08-19T02:44:19;9.07;;;4.90;;
22754;SDS011;11544;42.020;23.094;2022-08-19T02:46:46;6.15;;;5.40;;
22754;SDS011;11544;42.020;23.094;2022-08-19T02:49:13;9.13;;;5.72;;
22754;SDS011;11544;42.020;23.094;2022-08-19T02:51:42;6.50;;;5.57;;
22754;SDS011;11544;42.020;23.094;2022-08-19T02:54:10;6.88;;;6.10;;
22754;SDS011;11544;42.020;23.094;2022-08-19T02:56:38;7.82;;;5.43;;
22754;SDS011;11544;42.020;23.094;2022-08-19T02:59:06;7.90;;;5.70;;
22754;SDS011;11544;42.020;23.094;2022-08-19T03:01:33;10.73;;;6.00;;
22754;SDS011;11544;42.020;23.094;2022-08-19T03:04:02;8.82;;;5.70;;
22754;SDS011;11544;42.020;23.094;2022-08-19T03:06:29;6.90;;;5.60;;
22754;SDS011;11544;42.020;23.094;2022-08-19T03:08:56;6.50;;;5.90;;
22754;SDS011;11544;42.020;23.094;2022-08-19T03:11:23;6.75;;;6.05;;
22754;SDS011;11544;42.020;23.094;2022-08-19T03:13:53;7.70;;;6.05;;
22754;SDS011;11544;42.020;23.094;2022-08-19T03:16:22;7.90;;;5.85;;
22754;SDS011;11544;42.020;23.094;2022-08-19T03:18:51;7.70;;;6.00;;
22754;SDS011;11544;42.020;23.094;2022-08-19T03:21:19;6.72;;;6.03;;
22754;SDS011;11544;42.020;23.094;2022-08-19T03:23:49;8.40;;;6.22;;
22754;SDS011;11544;42.020;23.094;2022-08-19T03:26:15;6.72;;;6.00;;
22754;SDS011;11544;42.020;23.094;2022-08-19T03:28:42;6.80;;;6.10;;
22754;SDS011;11544;42.020;23.094;2022-08-19T03:31:12;6.63;;;5.70;;
22754;SDS011;11544;42.020;23.094;2022-08-19T03:33:39;6.50;;;5.63;;
22754;SDS011;11544;42.020;23.094;2022-08-19T03:36:08;6.97;;;6.28;;
22754;SDS011;11544;42.020;23.094;2022-08-19T03:38:38;6.82;;;6.10;;
22754;SDS011;11544;42.020;23.094;2022-08-19T03:41:09;6.75;;;6.07;;
22754;SDS011;11544;42.020;23.094;2022-08-19T03:43:37;12.65;;;6.65;;
22754;SDS011;11544;42.020;23.094;2022-08-19T03:46:06;7.40;;;6.55;;
22754;SDS011;11544;42.020;23.094;2022-08-19T03:48:34;7.30;;;6.25;;
22754;SDS011;11544;42.020;23.094;2022-08-19T03:51:01;6.28;;;5.68;;
22754;SDS011;11544;42.020;23.094;2022-08-19T03:53:28;7.28;;;6.00;;
22754;SDS011;11544;42.020;23.094;2022-08-19T03:55:55;9.43;;;6.20;;
22754;SDS011;11544;42.020;23.094;2022-08-19T03:58:23;7.18;;;6.00;;
22754;SDS011;11544;42.020;23.094;2022-08-19T04:00:48;6.90;;;6.20;;
22754;SDS011;11544;42.020;23.094;2022-08-19T04:03:14;9.23;;;6.78;;
22754;SDS011;11544;42.020;23.094;2022-08-19T04:05:40;11.15;;;6.20;;
22754;SDS011;11544;42.020;23.094;2022-08-19T04:08:06;9.98;;;6.50;;
22754;SDS011;11544;42.020;23.094;2022-08-19T04:10:38;7.00;;;6.30;;
22754;SDS011;11544;42.020;23.094;2022-08-19T04:13:05;9.20;;;6.07;;
22754;SDS011;11544;42.020;23.094;2022-08-19T04:15:32;6.90;;;6.30;;
22754;SDS011;11544;42.020;23.094;2022-08-19T04:18:04;7.10;;;6.13;;
22754;SDS011;11544;42.020;23.094;2022-08-19T04:20:37;9.15;;;7.57;;
22754;SDS011;11544;42.020;23.094;2022-08-19T04:23:04;11.65;;;7.18;;
22754;SDS011;11544;42.020;23.094;2022-08-19T04:25:34;13.35;;;8.30;;
22754;SDS011;11544;42.020;23.094;2022-08-19T04:28:02;13.45;;;7.40;;
22754;SDS011;11544;42.020;23.094;2022-08-19T04:30:28;11.88;;;7.25;;
22754;SDS011;11544;42.020;23.094;2022-08-19T04:32:54;12.68;;;7.28;;
22754;SDS011;11544;42.020;23.094;2022-08-19T04:35:19;12.98;;;7.10;;
22754;SDS011;11544;42.020;23.094;2022-08-19T04:37:45;15.13;;;8.07;;
22754;SDS011;11544;42.020;23.094;2022-08-19T04:40:11;16.23;;;7.68;;
22754;SDS011;11544;42.020;23.094;2022-08-19T04:43:03;24.00;;;13.00;;
22754;SDS011;11544;42.020;23.094;2022-08-19T04:45:28;12.95;;;8.27;;
22754;SDS011;11544;42.020;23.094;2022-08-19T04:47:54;9.30;;;7.40;;
22754;SDS011;11544;42.020;23.094;2022-08-19T04:50:24;12.82;;;7.50;;
22754;SDS011;11544;42.020;23.094;2022-08-19T04:52:51;14.40;;;7.40;;
22754;SDS011;11544;42.020;23.094;2022-08-19T04:55:17;11.68;;;7.28;;
22754;SDS011;11544;42.020;23.094;2022-08-19T04:57:43;9.55;;;7.28;;
22754;SDS011;11544;42.020;23.094;2022-08-19T05:00:09;14.25;;;7.97;;
22754;SDS011;11544;42.020;23.094;2022-08-19T05:02:36;11.35;;;6.85;;
22754;SDS011;11544;42.020;23.094;2022-08-19T05:05:02;11.50;;;7.38;;
22754;SDS011;11544;42.020;23.094;2022-08-19T05:07:28;12.82;;;7.20;;
22754;SDS011;11544;42.020;23.094;2022-08-19T05:09:54;13.52;;;8.02;;
22754;SDS011;11544;42.020;23.094;2022-08-19T05:12:20;9.35;;;6.90;;
22754;SDS011;11544;42.020;23.094;2022-08-19T05:14:46;9.35;;;6.70;;
22754;SDS011;11544;42.020;23.094;2022-08-19T05:17:14;8.07;;;6.15;;
22754;SDS011;11544;42.020;23.094;2022-08-19T05:19:40;9.93;;;6.80;;
22754;SDS011;11544;42.020;23.094;2022-08-19T05:22:24;7.68;;;6.65;;
22754;SDS011;11544;42.020;23.094;2022-08-19T05:25:04;10.95;;;6.95;;
22754;SDS011;11544;42.020;23.094;2022-08-19T05:27:31;8.05;;;6.68;;
22754;SDS011;11544;42.020;23.094;2022-08-19T05:29:57;9.27;;;6.45;;
22754;SDS011;11544;42.020;23.094;2022-08-19T05:32:23;10.15;;;6.47;;
22754;SDS011;11544;42.020;23.094;2022-08-19T05:34:49;13.88;;;6.97;;
22754;SDS011;11544;42.020;23.094;2022-08-19T05:37:15;11.32;;;6.82;;
22754;SDS011;11544;42.020;23.094;2022-08-19T05:39:40;9.18;;;7.00;;
22754;SDS011;11544;42.020;23.094;2022-08-19T05:42:07;13.32;;;7.57;;
22754;SDS011;11544;42.020;23.094;2022-08-19T05:44:35;11.85;;;7.53;;
22754;SDS011;11544;42.020;23.094;2022-08-19T05:47:05;15.38;;;9.73;;
22754;SDS011;11544;42.020;23.094;2022-08-19T05:49:32;8.63;;;7.28;;
22754;SDS011;11544;42.020;23.094;2022-08-19T05:51:58;9.13;;;6.63;;
22754;SDS011;11544;42.020;23.094;2022-08-19T05:54:26;9.10;;;6.60;;
22754;SDS011;11544;42.020;23.094;2022-08-19T05:56:52;8.23;;;7.18;;
22754;SDS011;11544;42.020;23.094;2022-08-19T05:59:19;9.27;;;7.28;;
22754;SDS011;11544;42.020;23.094;2022-08-19T06:01:47;12.73;;;6.95;;
22754;SDS011;11544;42.020;23.094;2022-08-19T06:04:19;11.90;;;6.78;;
22754;SDS011;11544;42.020;23.094;2022-08-19T06:06:46;9.10;;;6.60;;
22754;SDS011;11544;42.020;23.094;2022-08-19T06:09:13;10.95;;;6.90;;
22754;SDS011;11544;42.020;23.094;2022-08-19T06:11:41;15.15;;;6.70;;
22754;SDS011;11544;42.020;23.094;2022-08-19T06:14:10;11.60;;;6.97;;
22754;SDS011;11544;42.020;23.094;2022-08-19T06:16:39;12.15;;;6.40;;
22754;SDS011;11544;42.020;23.094;2022-08-19T06:19:07;8.10;;;6.38;;
22754;SDS011;11544;42.020;23.094;2022-08-19T06:21:36;17.65;;;6.68;;
22754;SDS011;11544;42.020;23.094;2022-08-19T06:24:07;10.15;;;6.85;;
22754;SDS011;11544;42.020;23.094;2022-08-19T06:26:37;10.20;;;6.43;;
22754;SDS011;11544;42.020;23.094;2022-08-19T06:29:04;9.82;;;6.25;;
22754;SDS011;11544;42.020;23.094;2022-08-19T06:31:32;9.20;;;5.55;;
22754;SDS011;11544;42.020;23.094;2022-08-19T06:34:00;9.20;;;6.15;;
22754;SDS011;11544;42.020;23.094;2022-08-19T06:36:40;8.05;;;7.07;;
22754;SDS011;11544;42.020;23.094;2022-08-19T06:39:16;11.43;;;6.63;;
22754;SDS011;11544;42.020;23.094;2022-08-19T06:41:46;9.90;;;6.10;;
22754;SDS011;11544;42.020;23.094;2022-08-19T06:44:16;11.80;;;6.28;;
22754;SDS011;11544;42.020;23.094;2022-08-19T06:46:44;11.82;;;6.47;;
22754;SDS011;11544;42.020;23.094;2022-08-19T06:49:10;11.63;;;6.65;;
22754;SDS011;11544;42.020;23.094;2022-08-19T06:51:42;12.25;;;6.50;;
22754;SDS011;11544;42.020;23.094;2022-08-19T06:54:09;10.60;;;7.20;;
22754;SDS011;11544;42.020;23.094;2022-08-19T06:56:36;9.25;;;6.78;;
22754;SDS011;11544;42.020;23.094;2022-08-19T06:59:03;13.07;;;6.95;;
22754;SDS011;11544;42.020;23.094;2022-08-19T07:01:34;12.23;;;7.10;;
22754;SDS011;11544;42.020;23.094;2022-08-19T07:04:06;17.80;;;8.02;;
22754;SDS011;11544;42.020;23.094;2022-08-19T07:06:33;12.35;;;7.05;;
22754;SDS011;11544;42.020;23.094;2022-08-19T07:08:59;11.38;;;6.70;;
22754;SDS011;11544;42.020;23.094;2022-08-19T07:11:26;8.95;;;6.78;;
22754;SDS011;11544;42.020;23.094;2022-08-19T07:13:52;13.20;;;6.47;;
22754;SDS011;11544;42.020;23.094;2022-08-19T07:16:19;9.73;;;6.35;;
22754;SDS011;11544;42.020;23.094;2022-08-19T07:18:46;17.55;;;7.30;;
22754;SDS011;11544;42.020;23.094;2022-08-19T07:21:19;11.68;;;6.72;;
22754;SDS011;11544;42.020;23.094;2022-08-19T07:23:49;10.20;;;6.40;;
22754;SDS011;11544;42.020;23.094;2022-08-19T07:26:21;14.02;;;6.55;;
22754;SDS011;11544;42.020;23.094;2022-08-19T07:28:50;13.40;;;7.00;;
22754;SDS011;11544;42.020;23.094;2022-08-19T07:31:17;13.25;;;6.35;;
22754;SDS011;11544;42.020;23.094;2022-08-19T07:33:45;15.77;;;7.05;;
22754;SDS011;11544;42.020;23.094;2022-08-19T07:36:13;11.30;;;6.80;;
22754;SDS011;11544;42.020;23.094;2022-08-19T07:38:46;14.38;;;6.75;;
22754;SDS011;11544;42.020;23.094;2022-08-19T07:41:15;11.13;;;5.97;;
22754;SDS011;11544;42.020;23.094;2022-08-19T07:43:45;8.50;;;6.35;;
22754;SDS011;11544;42.020;23.094;2022-08-19T07:46:11;13.52;;;6.68;;
22754;SDS011;11544;42.020;23.094;2022-08-19T07:48:39;10.38;;;5.60;;
22754;SDS011;11544;42.020;23.094;2022-08-19T07:51:08;11.23;;;6.40;;
22754;SDS011;11544;42.020;23.094;2022-08-19T07:53:35;14.07;;;6.90;;
22754;SDS011;11544;42.020;23.094;2022-08-19T07:56:03;11.98;;;6.80;;
22754;SDS011;11544;42.020;23.094;2022-08-19T07:58:31;9.55;;;6.70;;
22754;SDS011;11544;42.020;23.094;2022-08-19T08:00:58;13.40;;;6.85;;
22754;SDS011;11544;42.020;23.094;2022-08-19T08:03:25;10.00;;;6.35;;
22754;SDS011;11544;42.020;23.094;2022-08-19T08:06:12;12.35;;;6.43;;
22754;SDS011;11544;42.020;23.094;2022-08-19T08:08:58;10.02;;;6.28;;
22754;SDS011;11544;42.020;23.094;2022-08-19T08:11:37;11.30;;;6.05;;
22754;SDS011;11544;42.020;23.094;2022-08-19T08:14:14;12.43;;;7.05;;
22754;SDS011;11544;42.020;23.094;2022-08-19T08:16:43;10.18;;;6.35;;
22754;SDS011;11544;42.020;23.094;2022-08-19T08:19:11;12.85;;;6.80;;
22754;SDS011;11544;42.020;23.094;2022-08-19T08:21:40;15.38;;;6.65;;
22754;SDS011;11544;42.020;23.094;2022-08-19T08:24:09;12.35;;;6.43;;
22754;SDS011;11544;42.020;23.094;2022-08-19T08:26:35;14.48;;;6.95;;
22754;SDS011;11544;42.020;23.094;2022-08-19T08:29:01;13.45;;;6.60;;
22754;SDS011;11544;42.020;23.094;2022-08-19T08:31:28;8.88;;;5.95;;
22754;SDS011;11544;42.020;23.094;2022-08-19T08:33:53;8.27;;;6.30;;
22754;SDS011;11544;42.020;23.094;2022-08-19T08:36:20;10.68;;;6.47;;
22754;SDS011;11544;42.020;23.094;2022-08-19T08:38:46;13.02;;;6.32;;
22754;SDS011;11544;42.020;23.094;2022-08-19T08:43:58;10.23;;;6.38;;
22754;SDS011;11544;42.020;23.094;2022-08-19T08:46:36;9.57;;;6.53;;
22754;SDS011;11544;42.020;23.094;2022-08-19T08:49:17;14.02;;;6.55;;
22754;SDS011;11544;42.020;23.094;2022-08-19T08:51:51;11.93;;;5.95;;
22754;SDS011;11544;42.020;23.094;2022-08-19T08:54:23;14.07;;;6.68;;
22754;SDS011;11544;42.020;23.094;2022-08-19T08:56:55;10.45;;;5.53;;
22754;SDS011;11544;42.020;23.094;2022-08-19T08:59:25;10.50;;;5.78;;
22754;SDS011;11544;42.020;23.094;2022-08-19T09:01:56;12.25;;;5.82;;
22754;SDS011;11544;42.020;23.094;2022-08-19T09:04:21;16.52;;;5.60;;
22754;SDS011;11544;42.020;23.094;2022-08-19T09:09:39;11.27;;;6.22;;
22754;SDS011;11544;42.020;23.094;2022-08-19T09:15:04;12.02;;;5.78;;
22754;SDS011;11544;42.020;23.094;2022-08-19T09:17:33;10.35;;;6.00;;
22754;SDS011;11544;42.020;23.094;2022-08-19T09:22:40;8.10;;;5.05;;
22754;SDS011;11544;42.020;23.094;2022-08-19T09:25:10;10.45;;;5.40;;
22754;SDS011;11544;42.020;23.094;2022-08-19T09:27:39;8.73;;;5.38;;
22754;SDS011;11544;42.020;23.094;2022-08-19T09:30:08;8.13;;;4.90;;
22754;SDS011;11544;42.020;23.094;2022-08-19T09:32:35;9.00;;;4.90;;
22754;SDS011;11544;42.020;23.094;2022-08-19T09:35:01;8.52;;;6.00;;
22754;SDS011;11544;42.020;23.094;2022-08-19T09:37:31;8.75;;;6.03;;
22754;SDS011;11544;42.020;23.094;2022-08-19T09:39:57;10.40;;;5.47;;
22754;SDS011;11544;42.020;23.094;2022-08-19T09:42:23;12.63;;;6.80;;
22754;SDS011;11544;42.020;23.094;2022-08-19T09:44:48;13.52;;;5.80;;
22754;SDS011;11544;42.020;23.094;2022-08-19T09:47:14;10.95;;;5.32;;
22754;SDS011;11544;42.020;23.094;2022-08-19T09:49:40;9.77;;;5.75;;
22754;SDS011;11544;42.020;23.094;2022-08-19T09:52:10;8.20;;;5.38;;
22754;SDS011;11544;42.020;23.094;2022-08-19T09:54:37;10.52;;;5.10;;
22754;SDS011;11544;42.020;23.094;2022-08-19T09:57:04;16.42;;;6.88;;
22754;SDS011;11544;42.020;23.094;2022-08-19T09:59:30;7.55;;;5.88;;
22754;SDS011;11544;42.020;23.094;2022-08-19T10:01:58;12.57;;;5.68;;
22754;SDS011;11544;42.020;23.094;2022-08-19T10:04:24;7.93;;;5.10;;
22754;SDS011;11544;42.020;23.094;2022-08-19T10:07:10;8.95;;;5.35;;
22754;SDS011;11544;42.020;23.094;2022-08-19T10:09:36;11.23;;;5.45;;
22754;SDS011;11544;42.020;23.094;2022-08-19T10:12:09;9.75;;;6.03;;
22754;SDS011;11544;42.020;23.094;2022-08-19T10:14:35;11.25;;;5.38;;
22754;SDS011;11544;42.020;23.094;2022-08-19T10:17:02;7.32;;;4.70;;
22754;SDS011;11544;42.020;23.094;2022-08-19T10:19:28;10.10;;;4.90;;
22754;SDS011;11544;42.020;23.094;2022-08-19T10:22:02;8.88;;;5.57;;
22754;SDS011;11544;42.020;23.094;2022-08-19T10:24:32;13.05;;;5.95;;
22754;SDS011;11544;42.020;23.094;2022-08-19T10:27:00;8.85;;;5.25;;
22754;SDS011;11544;42.020;23.094;2022-08-19T10:29:29;11.73;;;5.18;;
22754;SDS011;11544;42.020;23.094;2022-08-19T10:31:57;11.85;;;4.95;;
22754;SDS011;11544;42.020;23.094;2022-08-19T10:34:26;8.88;;;5.78;;
22754;SDS011;11544;42.020;23.094;2022-08-19T10:36:52;7.65;;;5.25;;
22754;SDS011;11544;42.020;23.094;2022-08-19T10:39:18;10.63;;;4.93;;
22754;SDS011;11544;42.020;23.094;2022-08-19T10:41:44;12.23;;;5.65;;
22754;SDS011;11544;42.020;23.094;2022-08-19T10:44:10;13.88;;;6.10;;
22754;SDS011;11544;42.020;23.094;2022-08-19T10:46:39;6.68;;;4.88;;
22754;SDS011;11544;42.020;23.094;2022-08-19T10:49:07;10.60;;;5.15;;
22754;SDS011;11544;42.020;23.094;2022-08-19T10:51:34;7.95;;;4.70;;
22754;SDS011;11544;42.020;23.094;2022-08-19T10:54:19;8.50;;;5.03;;
22754;SDS011;11544;42.020;23.094;2022-08-19T10:56:45;6.38;;;4.35;;
22754;SDS011;11544;42.020;23.094;2022-08-19T11:01:53;4.82;;;3.58;;
22754;SDS011;11544;42.020;23.094;2022-08-19T11:04:26;5.53;;;4.05;;
22754;SDS011;11544;42.020;23.094;2022-08-19T11:06:52;7.63;;;3.78;;
22754;SDS011;11544;42.020;23.094;2022-08-19T11:09:22;4.70;;;3.80;;
22754;SDS011;11544;42.020;23.094;2022-08-19T11:11:50;7.47;;;3.92;;
22754;SDS011;11544;42.020;23.094;2022-08-19T11:14:17;8.25;;;4.28;;
22754;SDS011;11544;42.020;23.094;2022-08-19T11:16:45;6.90;;;4.55;;
22754;SDS011;11544;42.020;23.094;2022-08-19T11:19:13;7.07;;;4.20;;
22754;SDS011;11544;42.020;23.094;2022-08-19T11:21:43;9.95;;;4.53;;
22754;SDS011;11544;42.020;23.094;2022-08-19T11:24:14;7.60;;;4.32;;
22754;SDS011;11544;42.020;23.094;2022-08-19T11:26:43;7.18;;;4.55;;
22754;SDS011;11544;42.020;23.094;2022-08-19T11:29:10;6.43;;;4.68;;
22754;SDS011;11544;42.020;23.094;2022-08-19T11:31:42;7.55;;;4.30;;
22754;SDS011;11544;42.020;23.094;2022-08-19T11:34:11;8.50;;;4.35;;
22754;SDS011;11544;42.020;23.094;2022-08-19T11:36:42;9.55;;;4.60;;
22754;SDS011;11544;42.020;23.094;2022-08-19T11:39:10;7.97;;;4.47;;
22754;SDS011;11544;42.020;23.094;2022-08-19T11:41:38;6.18;;;4.18;;
22754;SDS011;11544;42.020;23.094;2022-08-19T11:44:05;11.27;;;3.92;;
22754;SDS011;11544;42.020;23.094;2022-08-19T11:46:33;10.27;;;4.30;;
22754;SDS011;11544;42.020;23.094;2022-08-19T11:48:59;7.30;;;4.13;;
22754;SDS011;11544;42.020;23.094;2022-08-19T11:51:29;10.10;;;3.92;;
22754;SDS011;11544;42.020;23.094;2022-08-19T11:53:56;9.43;;;3.75;;
22754;SDS011;11544;42.020;23.094;2022-08-19T11:56:23;10.55;;;4.15;;
22754;SDS011;11544;42.020;23.094;2022-08-19T11:58:51;8.07;;;4.50;;
22754;SDS011;11544;42.020;23.094;2022-08-19T12:01:18;13.02;;;5.15;;
22754;SDS011;11544;42.020;23.094;2022-08-19T12:03:46;11.27;;;4.32;;
22754;SDS011;11544;42.020;23.094;2022-08-19T12:06:16;9.27;;;5.22;;
22754;SDS011;11544;42.020;23.094;2022-08-19T12:08:44;8.65;;;4.45;;
22754;SDS011;11544;42.020;23.094;2022-08-19T12:11:11;8.13;;;4.57;;
22754;SDS011;11544;42.020;23.094;2022-08-19T12:13:39;12.40;;;3.92;;
22754;SDS011;11544;42.020;23.094;2022-08-19T12:16:10;8.45;;;3.80;;
22754;SDS011;11544;42.020;23.094;2022-08-19T12:18:37;8.18;;;3.95;;
22754;SDS011;11544;42.020;23.094;2022-08-19T12:21:06;5.35;;;3.63;;
22754;SDS011;11544;42.020;23.094;2022-08-19T12:23:33;7.97;;;4.20;;
22754;SDS011;11544;42.020;23.094;2022-08-19T12:25:58;10.88;;;4.78;;
22754;SDS011;11544;42.020;23.094;2022-08-19T12:28:24;9.25;;;4.63;;
22754;SDS011;11544;42.020;23.094;2022-08-19T12:30:50;12.68;;;4.35;;
22754;SDS011;11544;42.020;23.094;2022-08-19T12:33:17;7.25;;;3.97;;
22754;SDS011;11544;42.020;23.094;2022-08-19T12:35:44;10.38;;;4.85;;
22754;SDS011;11544;42.020;23.094;2022-08-19T12:38:14;12.82;;;4.53;;
22754;SDS011;11544;42.020;23.094;2022-08-19T12:40:49;5.38;;;4.07;;
22754;SDS011;11544;42.020;23.094;2022-08-19T12:43:17;11.85;;;4.57;;
22754;SDS011;11544;42.020;23.094;2022-08-19T12:45:44;12.27;;;4.25;;
22754;SDS011;11544;42.020;23.094;2022-08-19T12:48:10;11.98;;;4.78;;
22754;SDS011;11544;42.020;23.094;2022-08-19T12:50:40;6.82;;;3.90;;
22754;SDS011;11544;42.020;23.094;2022-08-19T12:53:07;8.90;;;3.78;;
22754;SDS011;11544;42.020;23.094;2022-08-19T12:55:33;10.88;;;3.80;;
22754;SDS011;11544;42.020;23.094;2022-08-19T12:57:59;11.00;;;4.22;;
22754;SDS011;11544;42.020;23.094;2022-08-19T13:00:26;12.68;;;4.28;;
22754;SDS011;11544;42.020;23.094;2022-08-19T13:02:53;8.68;;;4.10;;
22754;SDS011;11544;42.020;23.094;2022-08-19T13:05:21;7.57;;;3.97;;
22754;SDS011;11544;42.020;23.094;2022-08-19T13:07:51;13.68;;;4.45;;
22754;SDS011;11544;42.020;23.094;2022-08-19T13:10:21;6.65;;;4.28;;
22754;SDS011;11544;42.020;23.094;2022-08-19T13:12:50;8.23;;;3.90;;
22754;SDS011;11544;42.020;23.094;2022-08-19T13:15:18;6.45;;;4.18;;
22754;SDS011;11544;42.020;23.094;2022-08-19T13:17:46;7.45;;;4.20;;
22754;SDS011;11544;42.020;23.094;2022-08-19T13:20:14;13.30;;;4.70;;
22754;SDS011;11544;42.020;23.094;2022-08-19T13:22:41;10.43;;;4.05;;
22754;SDS011;11544;42.020;23.094;2022-08-19T13:25:09;8.45;;;4.13;;
22754;SDS011;11544;42.020;23.094;2022-08-19T13:27:36;7.93;;;3.60;;
22754;SDS011;11544;42.020;23.094;2022-08-19T13:30:03;9.77;;;4.13;;
22754;SDS011;11544;42.020;23.094;2022-08-19T13:32:48;7.30;;;3.80;;
22754;SDS011;11544;42.020;23.094;2022-08-19T13:35:32;8.18;;;3.85;;
22754;SDS011;11544;42.020;23.094;2022-08-19T13:37:58;8.40;;;4.00;;
22754;SDS011;11544;42.020;23.094;2022-08-19T13:40:24;9.90;;;4.78;;
22754;SDS011;11544;42.020;23.094;2022-08-19T13:42:53;9.30;;;4.07;;
22754;SDS011;11544;42.020;23.094;2022-08-19T13:45:21;11.68;;;4.20;;
22754;SDS011;11544;42.020;23.094;2022-08-19T13:47:50;9.90;;;4.30;;
22754;SDS011;11544;42.020;23.094;2022-08-19T13:50:18;8.05;;;4.82;;
22754;SDS011;11544;42.020;23.094;2022-08-19T13:52:47;7.90;;;4.22;;
22754;SDS011;11544;42.020;23.094;2022-08-19T13:55:14;8.32;;;4.00;;
22754;SDS011;11544;42.020;23.094;2022-08-19T13:57:41;11.65;;;4.50;;
22754;SDS011;11544;42.020;23.094;2022-08-19T14:00:08;11.10;;;4.55;;
22754;SDS011;11544;42.020;23.094;2022-08-19T14:02:37;12.10;;;4.15;;
22754;SDS011;11544;42.020;23.094;2022-08-19T14:05:05;8.98;;;4.15;;
22754;SDS011;11544;42.020;23.094;2022-08-19T14:07:33;18.13;;;3.72;;
22754;SDS011;11544;42.020;23.094;2022-08-19T14:09:58;7.43;;;4.18;;
22754;SDS011;11544;42.020;23.094;2022-08-19T14:12:24;10.07;;;4.97;;
22754;SDS011;11544;42.020;23.094;2022-08-19T14:14:50;13.57;;;4.60;;
22754;SDS011;11544;42.020;23.094;2022-08-19T14:17:25;10.77;;;4.47;;
22754;SDS011;11544;42.020;23.094;2022-08-19T14:20:00;6.95;;;4.38;;
22754;SDS011;11544;42.020;23.094;2022-08-19T14:22:32;10.40;;;4.72;;
22754;SDS011;11544;42.020;23.094;2022-08-19T14:24:59;11.50;;;4.70;;
22754;SDS011;11544;42.020;23.094;2022-08-19T14:27:24;10.20;;;4.30;;
22754;SDS011;11544;42.020;23.094;2022-08-19T14:29:51;8.80;;;4.35;;
22754;SDS011;11544;42.020;23.094;2022-08-19T14:32:17;11.00;;;4.70;;
22754;SDS011;11544;42.020;23.094;2022-08-19T14:34:44;8.68;;;4.15;;
22754;SDS011;11544;42.020;23.094;2022-08-19T14:37:13;9.90;;;4.68;;
22754;SDS011;11544;42.020;23.094;2022-08-19T14:39:42;9.98;;;4.80;;
22754;SDS011;11544;42.020;23.094;2022-08-19T14:42:10;7.97;;;5.03;;
22754;SDS011;11544;42.020;23.094;2022-08-19T14:44:36;13.35;;;5.03;;
22754;SDS011;11544;42.020;23.094;2022-08-19T14:47:08;9.95;;;4.47;;
22754;SDS011;11544;42.020;23.094;2022-08-19T14:49:34;12.10;;;4.50;;
22754;SDS011;11544;42.020;23.094;2022-08-19T14:52:03;12.95;;;5.07;;